Richland, Illinois
Current Conditions -  °F | °C
As of 1:42 PM on Friday 24 Oct 2014 (Local Time) from KSPI Reporting Station
Scattered Clouds Scattered Clouds  
Wind Chill: 63°   Ceiling: Unl
Heat Index: 63°   Visibility: 10mi
Dew Point: 56°   Wind: 0mph
Humidity: 78%   Direction: NA
Pressure: 30.06"   Gusts: NA
Location:  39.8458°N, 89.8743°W
Report Text: KSPI 241842Z 00000KT 10SM SCT007 17/13 A3006 RMK AO2 T01720133
Loading
Personal Weather Stations






























Interactive Weather Map
Tropical Storm Tracking
New forecast layout! Learn more

10-Day Weather Forecast

Advertisements
Track Severe Weather on mobile